Time;durP1;ratioP1;P1;durP2;ratioP2;P2;SDS_P1;SDS_P2;PMS_P1;PMS_P2;Temp;Humidity;BMP_temperature;BMP_pressure;BME280_temperature;BME280_humidity;BME280_pressure;Samples;Min_cycle;Max_cycle;Signal;HPM_P1;HPM_P2
2021/10/31 00:00:16;;;;;;;37.72;23.77;;;;;;;;;;5061910;28;20139;-68
2021/10/31 00:02:43;;;;;;;35.88;23.08;;;;;;;;;;5060685;28;20494;-68
2021/10/31 00:05:09;;;;;;;34.00;23.63;;;;;;;;;;5059465;28;20072;-68
2021/10/31 00:07:36;;;;;;;34.83;24.55;;;;;;;;;;5056177;28;20074;-68
2021/10/31 00:10:03;;;;;;;38.83;25.20;;;;;;;;;;5056456;28;20090;-68
2021/10/31 00:12:30;;;;;;;32.13;23.48;;;;;;;;;;5064005;28;20073;-68
2021/10/31 00:14:57;;;;;;;36.92;24.52;;;;;;;;;;5058851;28;20064;-68
2021/10/31 00:17:23;;;;;;;36.35;24.10;;;;;;;;;;5058031;28;20051;-68
2021/10/31 00:19:50;;;;;;;49.90;25.52;;;;;;;;;;5058673;28;20040;-68
2021/10/31 00:22:17;;;;;;;35.85;25.38;;;;;;;;;;5058469;28;20152;-68
2021/10/31 00:24:43;;;;;;;36.13;25.58;;;;;;;;;;5059719;28;20079;-67
2021/10/31 00:27:10;;;;;;;39.25;25.65;;;;;;;;;;5058487;28;20143;-68
2021/10/31 00:29:36;;;;;;;39.50;25.83;;;;;;;;;;5059172;28;20163;-68
2021/10/31 00:32:03;;;;;;;38.95;26.35;;;;;;;;;;5057982;28;20072;-68
2021/10/31 00:34:30;;;;;;;40.20;26.98;;;;;;;;;;5057747;28;20068;-68
2021/10/31 00:36:56;;;;;;;41.33;27.23;;;;;;;;;;5058077;28;20525;-68
2021/10/31 00:39:23;;;;;;;38.65;26.80;;;;;;;;;;5059959;28;20337;-68
2021/10/31 00:41:50;;;;;;;46.10;29.13;;;;;;;;;;5056686;28;20065;-68
2021/10/31 00:44:17;;;;;;;43.05;26.75;;;;;;;;;;5059452;28;20131;-68
2021/10/31 00:46:43;;;;;;;42.00;27.10;;;;;;;;;;5056270;28;20041;-68
2021/10/31 00:49:10;;;;;;;47.55;29.30;;;;;;;;;;5059608;28;20492;-68
2021/10/31 00:51:37;;;;;;;45.13;30.17;;;;;;;;;;5057805;28;20139;-68
2021/10/31 00:54:03;;;;;;;45.45;29.85;;;;;;;;;;5055720;28;20072;-68
2021/10/31 00:56:31;;;;;;;45.35;29.13;;;;;;;;;;5058738;28;20048;-68
2021/10/31 00:58:57;;;;;;;41.70;29.13;;;;;;;;;;5058481;28;20481;-68
2021/10/31 01:01:26;;;;;;;45.03;28.98;;;;;;;;;;5063495;28;20600;-68
2021/10/31 01:03:56;;;;;;;47.60;29.30;;;;;;;;;;5062429;28;20047;-68
2021/10/31 01:06:28;;;;;;;45.80;29.83;;;;;;;;;;5063065;28;20080;-68
2021/10/31 01:09:04;;;;;;;44.45;29.95;;;;;;;;;;5064289;28;20128;-68
2021/10/31 01:11:43;;;;;;;47.83;31.08;;;;;;;;;;5057058;28;20048;-68
2021/10/31 01:14:23;;;;;;;47.85;30.90;;;;;;;;;;5064382;28;20143;-68
2021/10/31 01:17:03;;;;;;;46.67;31.48;;;;;;;;;;5063886;28;20135;-68
2021/10/31 01:19:56;;;;;;;47.28;30.08;;;;;;;;;;5059537;28;20066;-68
2021/10/31 01:22:42;;;;;;;51.05;31.00;;;;;;;;;;5061505;28;20140;-68
2021/10/31 01:25:26;;;;;;;46.78;31.60;;;;;;;;;;5059162;28;20575;-68
2021/10/31 01:28:11;;;;;;;42.33;30.00;;;;;;;;;;5065648;28;20080;-68
2021/10/31 01:30:54;;;;;;;47.90;31.10;;;;;;;;;;5061514;28;20155;-68
2021/10/31 01:33:39;;;;;;;46.33;30.58;;;;;;;;;;5061297;28;20049;-68
2021/10/31 01:36:18;;;;;;;47.15;30.75;;;;;;;;;;5064846;28;20135;-68
2021/10/31 01:39:00;;;;;;;47.97;32.17;;;;;;;;;;5053334;28;20152;-68
2021/10/31 01:41:27;;;;;;;55.97;33.05;;;;;;;;;;5057224;28;20556;-68
2021/10/31 01:43:59;;;;;;;52.10;32.50;;;;;;;;;;5059097;28;20068;-68
2021/10/31 01:46:35;;;;;;;46.80;32.20;;;;;;;;;;5057600;28;20076;-68
2021/10/31 01:49:07;;;;;;;49.45;33.58;;;;;;;;;;5061628;28;20063;-68
2021/10/31 01:51:39;;;;;;;50.78;34.17;;;;;;;;;;5059338;28;20135;-68
2021/10/31 01:54:09;;;;;;;46.42;31.48;;;;;;;;;;5062208;28;20068;-68
2021/10/31 01:56:36;;;;;;;54.22;34.15;;;;;;;;;;5066271;28;20068;-68
2021/10/31 01:59:07;;;;;;;52.42;34.47;;;;;;;;;;5064837;28;20040;-68
2021/10/31 02:01:36;;;;;;;56.85;35.97;;;;;;;;;;5065963;28;20496;-68
2021/10/31 02:04:07;;;;;;;56.25;36.65;;;;;;;;;;5067508;28;20094;-68
2021/10/31 02:06:38;;;;;;;52.70;35.40;;;;;;;;;;5057907;28;20080;-68
2021/10/31 02:09:05;;;;;;;55.00;35.45;;;;;;;;;;5065781;28;20570;-68
2021/10/31 02:11:34;;;;;;;54.25;37.65;;;;;;;;;;5068604;28;20048;-68
2021/10/31 02:14:01;;;;;;;56.30;35.90;;;;;;;;;;5061363;28;20468;-68
2021/10/31 02:16:28;;;;;;;60.58;36.20;;;;;;;;;;5055907;28;20099;-69
2021/10/31 02:19:01;;;;;;;61.90;37.30;;;;;;;;;;5064107;28;20492;-68
2021/10/31 02:21:30;;;;;;;55.40;37.10;;;;;;;;;;5064359;28;20097;-68
2021/10/31 02:23:58;;;;;;;57.33;38.15;;;;;;;;;;5063298;28;20068;-69
2021/10/31 02:26:24;;;;;;;57.97;38.00;;;;;;;;;;5064500;28;20087;-69
2021/10/31 02:28:58;;;;;;;60.72;38.22;;;;;;;;;;5064191;28;20051;-69
2021/10/31 02:31:25;;;;;;;55.50;39.47;;;;;;;;;;5060816;28;20140;-69
2021/10/31 02:33:52;;;;;;;58.60;39.80;;;;;;;;;;5057882;28;20099;-69
2021/10/31 02:36:19;;;;;;;60.28;39.50;;;;;;;;;;5064254;28;20135;-69
2021/10/31 02:38:45;;;;;;;69.85;40.70;;;;;;;;;;5061025;28;20470;-69
2021/10/31 02:41:12;;;;;;;61.83;37.95;;;;;;;;;;5060857;28;20483;-69
2021/10/31 02:43:39;;;;;;;56.17;38.95;;;;;;;;;;5063461;28;20052;-69
2021/10/31 02:46:05;;;;;;;60.10;38.80;;;;;;;;;;5066288;28;20139;-69
2021/10/31 02:48:33;;;;;;;63.28;40.10;;;;;;;;;;5066586;28;20110;-69
2021/10/31 02:51:03;;;;;;;55.60;39.38;;;;;;;;;;5066863;28;20135;-69
2021/10/31 02:53:52;;;;;;;68.43;42.83;;;;;;;;;;5062237;28;20136;-69
2021/10/31 02:56:26;;;;;;;63.03;41.65;;;;;;;;;;5068498;28;20076;-70
2021/10/31 02:58:59;;;;;;;68.22;44.10;;;;;;;;;;5056497;28;20076;-70
2021/10/31 03:01:26;;;;;;;69.53;44.22;;;;;;;;;;5063084;28;20132;-69
2021/10/31 03:03:54;;;;;;;74.57;45.25;;;;;;;;;;5053264;28;20505;-69
2021/10/31 03:06:22;;;;;;;73.57;45.25;;;;;;;;;;5064052;28;20072;-69
2021/10/31 03:08:48;;;;;;;72.18;46.95;;;;;;;;;;5061840;28;20072;-69
2021/10/31 03:11:15;;;;;;;76.68;46.97;;;;;;;;;;5055264;28;20143;-70
2021/10/31 03:13:41;;;;;;;80.28;48.60;;;;;;;;;;5068396;28;20487;-70
2021/10/31 03:16:08;;;;;;;69.63;46.28;;;;;;;;;;5062879;28;20057;-70
2021/10/31 03:18:35;;;;;;;75.70;48.83;;;;;;;;;;5048815;28;20049;-70
2021/10/31 03:21:02;;;;;;;77.40;47.60;;;;;;;;;;5065163;28;20564;-69
2021/10/31 03:23:29;;;;;;;82.60;49.55;;;;;;;;;;5057278;28;20080;-70
2021/10/31 03:25:56;;;;;;;76.22;47.67;;;;;;;;;;5057511;28;20132;-69
2021/10/31 03:28:25;;;;;;;76.40;47.95;;;;;;;;;;5051167;28;20168;-69
2021/10/31 03:30:52;;;;;;;84.85;50.40;;;;;;;;;;5045237;28;20064;-70
2021/10/31 03:33:18;;;;;;;77.10;48.83;;;;;;;;;;5061707;28;20468;-69
2021/10/31 03:35:45;;;;;;;78.22;48.10;;;;;;;;;;5059841;28;20344;-69
2021/10/31 03:38:12;;;;;;;80.27;48.23;;;;;;;;;;5065223;28;20053;-70
2021/10/31 03:40:38;;;;;;;80.25;48.25;;;;;;;;;;5065542;28;20171;-69
2021/10/31 03:43:05;;;;;;;73.27;48.83;;;;;;;;;;5058444;28;20036;-69
2021/10/31 03:45:31;;;;;;;87.13;48.63;;;;;;;;;;5061271;28;20091;-69
2021/10/31 03:47:59;;;;;;;75.97;46.92;;;;;;;;;;5062260;28;20515;-69
2021/10/31 03:50:25;;;;;;;75.88;46.50;;;;;;;;;;5060784;28;20072;-69
2021/10/31 03:52:55;;;;;;;72.43;43.40;;;;;;;;;;5062809;28;20106;-69
2021/10/31 03:55:21;;;;;;;76.30;45.42;;;;;;;;;;5060085;28;20131;-69
2021/10/31 03:57:47;;;;;;;67.68;42.00;;;;;;;;;;5061787;28;20111;-69
2021/10/31 04:00:15;;;;;;;70.45;42.42;;;;;;;;;;5063372;28;20052;-69
2021/10/31 04:02:41;;;;;;;70.65;42.63;;;;;;;;;;5062281;28;20049;-69
2021/10/31 04:05:09;;;;;;;61.40;38.40;;;;;;;;;;5065877;28;20465;-70
2021/10/31 04:07:36;;;;;;;68.15;42.97;;;;;;;;;;5059641;28;20069;-70
2021/10/31 04:10:03;;;;;;;66.68;41.88;;;;;;;;;;5064893;28;20048;-70
2021/10/31 04:12:30;;;;;;;68.55;41.88;;;;;;;;;;5057636;28;20055;-69
2021/10/31 04:14:56;;;;;;;75.22;44.15;;;;;;;;;;5060718;28;20072;-69
2021/10/31 04:17:23;;;;;;;77.60;43.47;;;;;;;;;;5061021;28;20059;-69
2021/10/31 04:19:49;;;;;;;84.78;45.38;;;;;;;;;;5058008;28;20076;-69
2021/10/31 04:22:16;;;;;;;90.68;48.08;;;;;;;;;;5064357;28;20139;-69
2021/10/31 04:24:43;;;;;;;86.75;48.42;;;;;;;;;;5056765;28;20067;-69
2021/10/31 04:27:09;;;;;;;71.80;43.22;;;;;;;;;;5050603;28;20079;-69
2021/10/31 04:29:36;;;;;;;83.85;45.75;;;;;;;;;;5064559;28;20080;-69
2021/10/31 04:32:04;;;;;;;95.38;49.67;;;;;;;;;;5059242;28;20050;-69
2021/10/31 04:34:31;;;;;;;82.38;47.35;;;;;;;;;;5063401;28;20119;-69
2021/10/31 04:36:59;;;;;;;80.83;46.43;;;;;;;;;;5065055;28;20079;-70
2021/10/31 04:39:25;;;;;;;91.95;49.50;;;;;;;;;;5055862;28;20127;-69
2021/10/31 04:42:00;;;;;;;92.07;47.97;;;;;;;;;;5060538;28;20056;-69
2021/10/31 04:44:27;;;;;;;86.38;46.13;;;;;;;;;;5060618;28;20072;-69
2021/10/31 04:46:54;;;;;;;92.35;49.15;;;;;;;;;;5065256;28;20080;-70
2021/10/31 04:49:20;;;;;;;110.28;53.40;;;;;;;;;;5044936;28;20677;-69
2021/10/31 04:51:47;;;;;;;103.65;47.97;;;;;;;;;;5059871;28;20475;-69
2021/10/31 04:54:14;;;;;;;93.60;49.08;;;;;;;;;;5062208;28;20643;-69
2021/10/31 04:56:40;;;;;;;97.82;49.80;;;;;;;;;;5063048;28;20131;-69
2021/10/31 04:59:07;;;;;;;91.95;46.63;;;;;;;;;;5060385;28;20065;-69
2021/10/31 05:01:33;;;;;;;101.43;49.88;;;;;;;;;;5056923;28;20131;-69
2021/10/31 05:04:00;;;;;;;88.78;44.70;;;;;;;;;;5060690;28;20063;-69
2021/10/31 05:06:27;;;;;;;94.15;47.47;;;;;;;;;;5064242;28;20076;-69
2021/10/31 05:08:53;;;;;;;87.05;42.53;;;;;;;;;;5059316;28;20048;-69
2021/10/31 05:11:19;;;;;;;81.47;43.08;;;;;;;;;;5066760;28;20084;-69
2021/10/31 05:13:48;;;;;;;78.68;41.72;;;;;;;;;;5064622;28;20454;-69
2021/10/31 05:16:14;;;;;;;80.03;42.90;;;;;;;;;;5061383;28;20080;-69
2021/10/31 05:18:41;;;;;;;83.60;43.03;;;;;;;;;;5056799;28;20040;-69
2021/10/31 05:21:08;;;;;;;84.25;41.65;;;;;;;;;;5062189;28;20334;-69
2021/10/31 05:23:34;;;;;;;88.35;43.17;;;;;;;;;;5062362;28;20069;-69
2021/10/31 05:26:05;;;;;;;86.55;42.20;;;;;;;;;;5058225;28;20490;-69
2021/10/31 05:28:31;;;;;;;92.28;42.50;;;;;;;;;;5063262;28;20091;-69
2021/10/31 05:30:58;;;;;;;90.67;42.33;;;;;;;;;;5069912;28;20614;-69
2021/10/31 05:33:25;;;;;;;99.00;44.97;;;;;;;;;;5064041;28;20056;-69
2021/10/31 05:35:53;;;;;;;92.32;44.25;;;;;;;;;;5064740;28;20448;-69
2021/10/31 05:38:20;;;;;;;105.80;45.37;;;;;;;;;;5063473;28;20135;-69
2021/10/31 05:40:47;;;;;;;103.30;46.85;;;;;;;;;;5068464;28;20087;-69
2021/10/31 05:43:13;;;;;;;106.80;46.83;;;;;;;;;;5067534;28;20577;-69
2021/10/31 05:45:40;;;;;;;120.17;47.67;;;;;;;;;;5067356;28;20459;-69
2021/10/31 05:48:07;;;;;;;125.13;49.13;;;;;;;;;;5066488;28;20128;-69
2021/10/31 05:50:33;;;;;;;141.68;51.72;;;;;;;;;;5067941;28;20471;-69
2021/10/31 05:53:00;;;;;;;156.40;53.67;;;;;;;;;;5061329;28;20123;-69
2021/10/31 05:55:26;;;;;;;163.15;53.10;;;;;;;;;;5063908;28;20334;-69
2021/10/31 05:57:53;;;;;;;166.82;56.10;;;;;;;;;;5066209;28;20481;-69
2021/10/31 06:00:19;;;;;;;173.63;55.67;;;;;;;;;;5065585;28;20127;-69
2021/10/31 06:02:46;;;;;;;177.15;56.67;;;;;;;;;;5067247;28;20131;-70
2021/10/31 06:05:13;;;;;;;166.23;57.13;;;;;;;;;;5063970;28;20045;-69
2021/10/31 06:07:41;;;;;;;166.90;55.33;;;;;;;;;;5067438;28;20560;-70
2021/10/31 06:10:08;;;;;;;188.90;55.67;;;;;;;;;;5062423;28;20124;-69
2021/10/31 06:12:34;;;;;;;177.68;56.28;;;;;;;;;;5067556;28;20507;-69
2021/10/31 06:15:03;;;;;;;178.65;56.58;;;;;;;;;;5065026;28;20135;-69
2021/10/31 06:17:29;;;;;;;218.52;58.10;;;;;;;;;;5064955;28;20079;-69
2021/10/31 06:19:56;;;;;;;226.63;55.15;;;;;;;;;;5062635;28;20480;-69
2021/10/31 06:22:23;;;;;;;444.83;73.60;;;;;;;;;;5057389;28;20580;-69
2021/10/31 06:24:49;;;;;;;564.13;78.35;;;;;;;;;;5067283;28;20333;-69
2021/10/31 06:27:15;;;;;;;323.13;65.97;;;;;;;;;;5064422;28;20077;-69
2021/10/31 06:29:42;;;;;;;454.42;72.03;;;;;;;;;;5065221;28;20651;-70
2021/10/31 06:32:08;;;;;;;340.67;66.82;;;;;;;;;;5063651;28;20084;-69
2021/10/31 06:34:35;;;;;;;480.17;77.18;;;;;;;;;;5063006;28;20124;-70
2021/10/31 06:37:01;;;;;;;358.08;67.28;;;;;;;;;;5065310;28;20079;-69
2021/10/31 06:39:28;;;;;;;227.68;59.72;;;;;;;;;;5065861;28;20079;-69
2021/10/31 06:41:55;;;;;;;221.60;58.33;;;;;;;;;;5062712;28;20500;-69
2021/10/31 06:44:22;;;;;;;310.88;66.55;;;;;;;;;;5060874;28;20044;-69
2021/10/31 06:46:48;;;;;;;234.95;59.05;;;;;;;;;;5062530;28;20127;-69
2021/10/31 06:49:15;;;;;;;196.43;57.42;;;;;;;;;;5066648;28;20474;-69
2021/10/31 06:51:41;;;;;;;234.23;60.75;;;;;;;;;;5063363;28;20476;-69
2021/10/31 06:54:09;;;;;;;190.00;57.38;;;;;;;;;;5067838;28;20072;-69
2021/10/31 06:56:36;;;;;;;160.95;54.25;;;;;;;;;;5059380;28;20512;-69
2021/10/31 06:59:03;;;;;;;142.38;50.83;;;;;;;;;;5065151;28;20040;-69
2021/10/31 07:01:32;;;;;;;139.93;45.75;;;;;;;;;;5050774;28;20087;-69
2021/10/31 07:03:59;;;;;;;141.70;48.30;;;;;;;;;;5064394;28;20132;-69
2021/10/31 07:06:27;;;;;;;151.68;51.08;;;;;;;;;;5065377;28;20060;-70
2021/10/31 07:08:55;;;;;;;132.60;45.13;;;;;;;;;;5065486;28;20048;-69
2021/10/31 07:11:21;;;;;;;176.80;50.38;;;;;;;;;;5063410;28;20163;-69
2021/10/31 07:13:48;;;;;;;140.43;43.65;;;;;;;;;;5066639;28;20508;-69
2021/10/31 07:16:14;;;;;;;148.65;45.17;;;;;;;;;;5063309;28;20120;-69
2021/10/31 07:18:41;;;;;;;119.60;42.50;;;;;;;;;;5063580;28;20048;-69
2021/10/31 07:21:07;;;;;;;117.20;40.17;;;;;;;;;;5057020;28;20132;-69
2021/10/31 07:23:34;;;;;;;100.15;36.85;;;;;;;;;;5064717;28;20045;-69
2021/10/31 07:26:04;;;;;;;108.57;38.05;;;;;;;;;;5066876;28;20080;-69
2021/10/31 07:28:34;;;;;;;117.78;38.58;;;;;;;;;;5051797;28;20052;-69
2021/10/31 07:31:02;;;;;;;118.82;37.45;;;;;;;;;;5063654;28;20136;-69
2021/10/31 07:33:28;;;;;;;119.63;37.95;;;;;;;;;;5063960;28;20049;-69
2021/10/31 07:35:55;;;;;;;114.15;37.80;;;;;;;;;;5062859;28;20068;-69
2021/10/31 07:38:21;;;;;;;97.15;34.80;;;;;;;;;;5063448;28;20143;-69
2021/10/31 07:40:48;;;;;;;97.53;35.65;;;;;;;;;;5062004;28;20133;-69
2021/10/31 07:43:15;;;;;;;86.88;32.33;;;;;;;;;;5059521;28;20135;-69
2021/10/31 07:45:41;;;;;;;85.83;31.73;;;;;;;;;;5067024;28;20052;-69
2021/10/31 07:48:08;;;;;;;81.35;31.27;;;;;;;;;;5065344;28;20681;-69
2021/10/31 07:50:36;;;;;;;83.13;31.92;;;;;;;;;;5065296;28;20128;-69
2021/10/31 07:53:03;;;;;;;85.05;30.23;;;;;;;;;;5060030;28;20071;-69
2021/10/31 07:55:31;;;;;;;82.68;29.77;;;;;;;;;;5062276;28;20147;-69
2021/10/31 07:57:59;;;;;;;79.00;29.15;;;;;;;;;;5062142;28;20090;-69
2021/10/31 08:00:28;;;;;;;89.45;29.33;;;;;;;;;;5064054;28;20489;-70
2021/10/31 08:02:55;;;;;;;77.85;29.27;;;;;;;;;;5061485;28;20040;-69
2021/10/31 08:05:22;;;;;;;78.70;28.80;;;;;;;;;;5062878;28;20067;-69
2021/10/31 08:07:49;;;;;;;98.70;29.00;;;;;;;;;;5067590;28;20485;-69
2021/10/31 08:10:15;;;;;;;74.82;27.23;;;;;;;;;;5064165;28;20373;-69
2021/10/31 08:12:42;;;;;;;80.27;29.20;;;;;;;;;;5062614;28;20143;-69
2021/10/31 08:15:09;;;;;;;83.80;28.02;;;;;;;;;;5062224;28;20331;-69
2021/10/31 08:17:35;;;;;;;74.47;26.65;;;;;;;;;;5060358;28;20535;-69
2021/10/31 08:20:02;;;;;;;83.85;28.33;;;;;;;;;;5064691;28;20128;-69
2021/10/31 08:22:29;;;;;;;92.37;26.97;;;;;;;;;;5064855;28;20488;-69
2021/10/31 08:24:55;;;;;;;74.45;25.17;;;;;;;;;;5065605;28;20091;-69
2021/10/31 08:27:22;;;;;;;67.30;23.00;;;;;;;;;;5067563;28;20131;-70
2021/10/31 08:29:50;;;;;;;65.07;24.35;;;;;;;;;;5064682;28;20466;-70
2021/10/31 08:32:16;;;;;;;73.15;26.20;;;;;;;;;;5063239;28;20068;-70
2021/10/31 08:34:43;;;;;;;68.78;23.48;;;;;;;;;;5058875;28;20076;-70
2021/10/31 08:37:10;;;;;;;73.73;23.33;;;;;;;;;;5059307;28;20136;-70
2021/10/31 08:39:36;;;;;;;74.75;23.13;;;;;;;;;;5060744;28;20139;-69
2021/10/31 08:42:03;;;;;;;68.53;21.30;;;;;;;;;;5059190;28;20052;-69
2021/10/31 08:44:29;;;;;;;75.85;23.48;;;;;;;;;;5066114;28;20481;-69
2021/10/31 08:46:56;;;;;;;68.93;21.70;;;;;;;;;;5065015;28;20132;-70
2021/10/31 08:49:22;;;;;;;60.92;19.73;;;;;;;;;;5061335;28;20040;-69
2021/10/31 08:51:49;;;;;;;72.65;21.33;;;;;;;;;;5061299;28;20444;-69
2021/10/31 08:54:15;;;;;;;65.03;20.55;;;;;;;;;;5061924;28;20048;-69
2021/10/31 08:56:41;;;;;;;63.22;17.65;;;;;;;;;;5060746;28;20491;-70
2021/10/31 08:59:08;;;;;;;54.37;14.90;;;;;;;;;;5063532;28;20548;-70
2021/10/31 09:01:35;;;;;;;60.20;16.63;;;;;;;;;;5062694;28;20345;-70
2021/10/31 09:04:01;;;;;;;60.65;14.60;;;;;;;;;;5059115;28;20299;-70
2021/10/31 09:06:28;;;;;;;54.42;14.50;;;;;;;;;;5062550;28;20048;-70
2021/10/31 09:08:55;;;;;;;44.15;12.07;;;;;;;;;;5060226;28;20488;-70
2021/10/31 09:11:21;;;;;;;45.80;11.88;;;;;;;;;;5062207;28;20052;-70
2021/10/31 09:13:51;;;;;;;43.72;10.82;;;;;;;;;;5059798;28;20127;-70
2021/10/31 09:16:17;;;;;;;44.25;11.80;;;;;;;;;;5059828;28;20128;-70
2021/10/31 09:18:44;;;;;;;50.50;12.10;;;;;;;;;;5059551;28;20052;-69
2021/10/31 09:21:11;;;;;;;42.47;11.90;;;;;;;;;;5059559;28;20135;-69
2021/10/31 09:23:38;;;;;;;38.13;11.25;;;;;;;;;;5062557;28;20128;-70
2021/10/31 09:26:04;;;;;;;36.83;11.10;;;;;;;;;;5058134;28;20087;-71
2021/10/31 09:28:31;;;;;;;35.40;9.32;;;;;;;;;;5059781;28;20466;-70
2021/10/31 09:30:58;;;;;;;35.20;8.87;;;;;;;;;;5058990;28;20061;-70
2021/10/31 09:33:25;;;;;;;45.40;9.98;;;;;;;;;;5057779;28;20314;-70
2021/10/31 09:35:58;;;;;;;34.28;9.73;;;;;;;;;;5060452;28;20048;-70
2021/10/31 09:38:26;;;;;;;35.95;7.93;;;;;;;;;;5053251;28;20059;-70
2021/10/31 09:40:54;;;;;;;41.15;9.20;;;;;;;;;;5059352;28;20379;-70
2021/10/31 09:43:23;;;;;;;38.22;8.80;;;;;;;;;;5065476;28;20053;-70
2021/10/31 09:45:49;;;;;;;37.35;8.23;;;;;;;;;;5062736;28;20051;-70
2021/10/31 09:48:18;;;;;;;35.75;8.50;;;;;;;;;;5060419;28;20135;-71
2021/10/31 09:50:46;;;;;;;34.90;7.32;;;;;;;;;;5060411;28;20131;-70
2021/10/31 09:53:18;;;;;;;34.90;7.00;;;;;;;;;;5062762;28;20413;-70
2021/10/31 09:55:47;;;;;;;31.88;6.15;;;;;;;;;;5058366;28;20136;-70
2021/10/31 09:58:23;;;;;;;28.00;7.43;;;;;;;;;;5057465;28;20074;-70
2021/10/31 10:00:51;;;;;;;40.35;6.88;;;;;;;;;;5062442;28;20091;-70
2021/10/31 10:03:35;;;;;;;21.77;5.82;;;;;;;;;;5065246;28;20052;-70
2021/10/31 10:06:07;;;;;;;26.13;5.60;;;;;;;;;;5066512;28;20125;-70
2021/10/31 10:08:34;;;;;;;19.48;5.03;;;;;;;;;;5065567;28;20123;-71
2021/10/31 10:11:01;;;;;;;24.23;5.13;;;;;;;;;;5047013;28;20504;-70
2021/10/31 10:13:30;;;;;;;26.48;5.03;;;;;;;;;;5065656;28;20052;-70
2021/10/31 10:16:15;;;;;;;28.88;5.60;;;;;;;;;;5064157;28;20087;-70
2021/10/31 10:18:41;;;;;;;25.88;5.28;;;;;;;;;;5067119;28;20052;-70
2021/10/31 10:21:14;;;;;;;19.38;4.22;;;;;;;;;;5064532;28;20083;-70
2021/10/31 10:23:47;;;;;;;30.58;4.82;;;;;;;;;;5062909;28;20076;-70
2021/10/31 10:26:13;;;;;;;38.08;4.38;;;;;;;;;;5065716;28;20083;-70
2021/10/31 10:28:40;;;;;;;24.65;4.18;;;;;;;;;;5054613;28;20107;-70
2021/10/31 10:31:22;;;;;;;23.77;4.28;;;;;;;;;;5066186;28;20080;-70
2021/10/31 10:33:51;;;;;;;19.58;3.50;;;;;;;;;;5066802;28;20052;-71
2021/10/31 10:36:19;;;;;;;23.73;4.22;;;;;;;;;;5063840;28;20457;-70
2021/10/31 10:38:58;;;;;;;31.90;4.25;;;;;;;;;;5064313;28;20144;-71
2021/10/31 10:41:39;;;;;;;17.20;3.85;;;;;;;;;;5065169;28;20052;-70
2021/10/31 10:44:18;;;;;;;17.95;3.42;;;;;;;;;;5060175;28;20128;-70
2021/10/31 10:46:47;;;;;;;25.63;3.60;;;;;;;;;;5066616;28;20048;-71
2021/10/31 10:49:17;;;;;;;26.48;4.13;;;;;;;;;;5065046;28;20745;-70
2021/10/31 10:51:45;;;;;;;18.55;3.97;;;;;;;;;;5067141;28;20084;-70
2021/10/31 10:54:13;;;;;;;29.73;4.28;;;;;;;;;;5062313;28;20143;-70
2021/10/31 10:56:57;;;;;;;24.90;3.88;;;;;;;;;;5068329;28;20045;-71
2021/10/31 10:59:24;;;;;;;25.15;3.60;;;;;;;;;;5064283;28;20080;-70
2021/10/31 11:02:13;;;;;;;26.42;3.78;;;;;;;;;;5067749;28;20049;-70
2021/10/31 11:04:41;;;;;;;14.25;2.90;;;;;;;;;;5063551;28;20497;-70
2021/10/31 11:07:08;;;;;;;17.00;3.15;;;;;;;;;;5060434;28;20086;-70
2021/10/31 11:09:38;;;;;;;22.45;3.88;;;;;;;;;;5060488;28;20044;-71
2021/10/31 11:12:24;;;;;;;17.27;3.13;;;;;;;;;;5060788;28;20525;-71
2021/10/31 11:14:51;;;;;;;18.77;3.10;;;;;;;;;;5062507;28;20048;-71
2021/10/31 11:17:18;;;;;;;15.55;3.10;;;;;;;;;;5064703;28;20053;-71
2021/10/31 11:19:45;;;;;;;21.40;3.20;;;;;;;;;;5067690;28;20682;-71
2021/10/31 11:22:12;;;;;;;19.30;3.17;;;;;;;;;;5062493;28;20178;-71
2021/10/31 11:24:40;;;;;;;23.83;3.25;;;;;;;;;;5064060;28;20057;-71
2021/10/31 11:27:08;;;;;;;14.82;2.70;;;;;;;;;;5063278;28;20055;-70
2021/10/31 11:29:34;;;;;;;26.27;3.40;;;;;;;;;;5063267;28;20076;-71
2021/10/31 11:32:03;;;;;;;;;;;;;;;;;;5063108;28;20080;-71
2021/10/31 11:34:30;;;;;;;21.60;3.33;;;;;;;;;;5066540;28;19976;-70
2021/10/31 11:36:56;;;;;;;16.47;2.93;;;;;;;;;;5067272;28;20128;-71
2021/10/31 11:39:23;;;;;;;25.42;3.47;;;;;;;;;;5063572;28;20334;-70
2021/10/31 11:41:50;;;;;;;19.63;3.30;;;;;;;;;;5063216;28;20110;-70
2021/10/31 11:44:17;;;;;;;22.63;3.60;;;;;;;;;;5063971;28;20081;-70
2021/10/31 11:46:44;;;;;;;23.77;2.80;;;;;;;;;;5064638;28;20117;-70
2021/10/31 11:49:10;;;;;;;22.83;3.10;;;;;;;;;;5066015;28;20041;-70
2021/10/31 11:51:41;;;;;;;23.90;4.18;;;;;;;;;;5064535;28;20076;-70
2021/10/31 11:54:08;;;;;;;38.67;4.57;;;;;;;;;;5041234;28;20128;-70
2021/10/31 11:56:39;;;;;;;23.10;3.40;;;;;;;;;;5065698;28;20127;-70
2021/10/31 11:59:14;;;;;;;23.17;3.60;;;;;;;;;;5061331;28;20091;-70
2021/10/31 12:01:48;;;;;;;25.70;3.67;;;;;;;;;;5056201;28;20091;-70
2021/10/31 12:04:34;;;;;;;25.92;3.40;;;;;;;;;;5064411;28;20044;-70
2021/10/31 12:07:08;;;;;;;22.55;3.47;;;;;;;;;;5044996;28;20110;-70
2021/10/31 12:09:34;;;;;;;19.10;4.05;;;;;;;;;;5064590;28;20083;-70
2021/10/31 12:12:02;;;;;;;20.35;3.53;;;;;;;;;;5063322;28;20127;-70
2021/10/31 12:14:28;;;;;;;;;;;;;;;;;;5063629;28;20127;-70
2021/10/31 12:16:56;;;;;;;19.17;3.47;;;;;;;;;;5065695;28;19971;-70
2021/10/31 12:19:23;;;;;;;20.65;3.00;;;;;;;;;;5064190;28;20051;-70
2021/10/31 12:22:05;;;;;;;17.83;3.45;;;;;;;;;;5060965;28;20063;-70
2021/10/31 12:24:42;;;;;;;12.23;2.60;;;;;;;;;;5056155;28;20049;-70
2021/10/31 12:27:16;;;;;;;11.30;2.63;;;;;;;;;;5055564;28;20563;-70
2021/10/31 12:29:47;;;;;;;16.75;2.45;;;;;;;;;;5065273;28;20132;-70
2021/10/31 12:32:16;;;;;;;14.45;2.50;;;;;;;;;;5065618;28;20087;-70
2021/10/31 12:34:42;;;;;;;14.40;2.53;;;;;;;;;;5065340;28;20081;-71
2021/10/31 12:37:18;;;;;;;12.25;2.45;;;;;;;;;;5062624;28;20049;-70
2021/10/31 12:39:45;;;;;;;19.70;2.83;;;;;;;;;;5061069;28;20080;-70
2021/10/31 12:42:13;;;;;;;17.55;2.90;;;;;;;;;;5066687;28;20439;-70
2021/10/31 12:44:42;;;;;;;11.05;2.80;;;;;;;;;;5062504;28;20084;-71
2021/10/31 12:47:13;;;;;;;19.08;2.83;;;;;;;;;;5062409;28;20085;-71
2021/10/31 12:49:40;;;;;;;13.27;2.83;;;;;;;;;;5049410;28;20076;-70
2021/10/31 12:52:26;;;;;;;17.77;2.90;;;;;;;;;;5061946;28;20118;-70
2021/10/31 12:54:53;;;;;;;14.35;2.70;;;;;;;;;;5059191;28;20132;-70
2021/10/31 12:57:20;;;;;;;24.63;3.03;;;;;;;;;;5066101;28;20072;-70
2021/10/31 12:59:47;;;;;;;17.83;2.70;;;;;;;;;;5063638;28;20540;-70
2021/10/31 13:02:15;;;;;;;14.80;2.80;;;;;;;;;;5061342;28;20045;-70
2021/10/31 13:04:48;;;;;;;18.08;3.08;;;;;;;;;;5060415;28;20041;-70
2021/10/31 13:07:15;;;;;;;15.50;3.05;;;;;;;;;;5059897;28;20124;-71
2021/10/31 13:09:43;;;;;;;16.15;2.50;;;;;;;;;;5061875;28;20091;-70
2021/10/31 13:12:27;;;;;;;20.05;3.17;;;;;;;;;;5060761;28;20080;-70
2021/10/31 13:15:00;;;;;;;23.27;3.30;;;;;;;;;;5063224;28;20132;-70
2021/10/31 13:17:31;;;;;;;16.70;3.15;;;;;;;;;;5060006;28;20089;-70
2021/10/31 13:20:05;;;;;;;24.40;4.25;;;;;;;;;;5063076;28;20134;-70
2021/10/31 13:22:32;;;;;;;19.85;3.33;;;;;;;;;;5064431;28;20590;-70
2021/10/31 13:24:58;;;;;;;22.42;3.38;;;;;;;;;;5066714;28;20044;-70
2021/10/31 13:27:25;;;;;;;18.95;3.28;;;;;;;;;;5055891;28;20642;-70
2021/10/31 13:29:53;;;;;;;22.67;3.63;;;;;;;;;;5062950;28;20139;-71
2021/10/31 13:32:21;;;;;;;22.35;3.50;;;;;;;;;;5062956;28;20125;-70
2021/10/31 13:34:49;;;;;;;17.58;3.42;;;;;;;;;;5059486;28;20085;-70
2021/10/31 13:37:17;;;;;;;16.40;3.03;;;;;;;;;;5056264;28;20083;-70
2021/10/31 13:39:54;;;;;;;18.42;3.05;;;;;;;;;;5059436;28;20081;-70
2021/10/31 13:42:27;;;;;;;16.42;3.10;;;;;;;;;;5055800;28;20588;-70
2021/10/31 13:44:54;;;;;;;21.33;3.75;;;;;;;;;;5058700;28;20048;-70
2021/10/31 13:49:49;;;;;;;14.77;3.30;;;;;;;;;;5062958;28;20708;-70
2021/10/31 13:52:17;;;;;;;17.73;3.20;;;;;;;;;;5063240;28;20089;-70
2021/10/31 13:54:47;;;;;;;19.27;3.45;;;;;;;;;;5066680;28;20391;-70
2021/10/31 13:57:19;;;;;;;16.85;3.00;;;;;;;;;;5065873;28;20079;-70
2021/10/31 13:59:53;;;;;;;12.00;2.75;;;;;;;;;;5063936;28;20374;-70
2021/10/31 14:02:20;;;;;;;20.52;3.53;;;;;;;;;;5049277;28;20103;-70
2021/10/31 14:05:07;;;;;;;18.45;3.78;;;;;;;;;;5066796;28;20135;-71
2021/10/31 14:07:38;;;;;;;17.40;3.10;;;;;;;;;;5066384;28;20109;-70
2021/10/31 14:10:06;;;;;;;18.15;3.65;;;;;;;;;;5067274;28;20119;-70
2021/10/31 14:12:33;;;;;;;23.10;3.50;;;;;;;;;;5062673;28;20083;-71
2021/10/31 14:15:04;;;;;;;24.30;4.18;;;;;;;;;;5064922;28;20072;-70
2021/10/31 14:17:31;;;;;;;24.02;3.95;;;;;;;;;;5068055;28;20087;-70
2021/10/31 14:19:58;;;;;;;23.30;3.97;;;;;;;;;;5065814;28;20131;-70
2021/10/31 14:22:27;;;;;;;18.63;3.50;;;;;;;;;;5066240;28;20131;-70
2021/10/31 14:25:07;;;;;;;15.88;3.15;;;;;;;;;;5071219;28;20087;-70
2021/10/31 14:27:36;;;;;;;18.75;3.78;;;;;;;;;;5048808;28;20469;-70
2021/10/31 14:30:38;;;;;;;23.23;3.95;;;;;;;;;;5068934;28;20145;-70
2021/10/31 14:33:12;;;;;;;17.42;3.38;;;;;;;;;;4989302;28;20140;-70